sensor_id;sensor_type;location;lat;lon;timestamp;P1;durP1;ratioP1;P2;durP2;ratioP2
51194;SDS011;37259;49.972;19.850;2023-08-07T00:00:44;5.6;;;1.7;;
51194;SDS011;37259;49.972;19.850;2023-08-07T00:01:44;5.6;;;1.7;;
51194;SDS011;37259;49.972;19.850;2023-08-07T00:02:44;5.6;;;1.7;;
51194;SDS011;37259;49.972;19.850;2023-08-07T00:03:44;5.6;;;1.7;;
51194;SDS011;37259;49.972;19.850;2023-08-07T00:04:44;5.6;;;1.7;;
51194;SDS011;37259;49.972;19.850;2023-08-07T00:05:45;5.6;;;1.7;;
51194;SDS011;37259;49.972;19.850;2023-08-07T00:06:44;5.6;;;1.7;;
51194;SDS011;37259;49.972;19.850;2023-08-07T00:07:44;5.6;;;1.7;;
51194;SDS011;37259;49.972;19.850;2023-08-07T00:08:44;5.6;;;1.7;;
51194;SDS011;37259;49.972;19.850;2023-08-07T00:09:44;5.6;;;1.7;;
51194;SDS011;37259;49.972;19.850;2023-08-07T00:10:44;5.6;;;1.7;;
51194;SDS011;37259;49.972;19.850;2023-08-07T00:11:44;8.4;;;5.7;;
51194;SDS011;37259;49.972;19.850;2023-08-07T00:12:44;8.4;;;5.7;;
51194;SDS011;37259;49.972;19.850;2023-08-07T00:13:44;8.4;;;5.7;;
51194;SDS011;37259;49.972;19.850;2023-08-07T00:14:46;8.4;;;5.7;;
51194;SDS011;37259;49.972;19.850;2023-08-07T00:15:44;8.4;;;5.7;;
51194;SDS011;37259;49.972;19.850;2023-08-07T00:16:44;8.4;;;5.7;;
51194;SDS011;37259;49.972;19.850;2023-08-07T00:17:44;8.4;;;5.7;;
51194;SDS011;37259;49.972;19.850;2023-08-07T00:18:44;8.4;;;5.7;;
51194;SDS011;37259;49.972;19.850;2023-08-07T00:19:44;8.4;;;5.7;;
51194;SDS011;37259;49.972;19.850;2023-08-07T00:20:44;8.4;;;5.7;;
51194;SDS011;37259;49.972;19.850;2023-08-07T00:21:44;8.4;;;5.7;;
51194;SDS011;37259;49.972;19.850;2023-08-07T00:22:44;8.4;;;5.7;;
51194;SDS011;37259;49.972;19.850;2023-08-07T00:23:44;8.4;;;5.7;;
51194;SDS011;37259;49.972;19.850;2023-08-07T00:24:44;8.4;;;5.7;;
51194;SDS011;37259;49.972;19.850;2023-08-07T00:25:44;8.4;;;5.7;;
51194;SDS011;37259;49.972;19.850;2023-08-07T00:26:44;8.4;;;5.7;;
51194;SDS011;37259;49.972;19.850;2023-08-07T00:27:45;8.4;;;5.7;;
51194;SDS011;37259;49.972;19.850;2023-08-07T00:28:44;8.4;;;5.7;;
51194;SDS011;37259;49.972;19.850;2023-08-07T00:29:44;8.4;;;5.7;;
51194;SDS011;37259;49.972;19.850;2023-08-07T00:30:44;8.4;;;5.7;;
51194;SDS011;37259;49.972;19.850;2023-08-07T00:31:44;8.4;;;5.7;;
51194;SDS011;37259;49.972;19.850;2023-08-07T00:32:44;8.4;;;5.7;;
51194;SDS011;37259;49.972;19.850;2023-08-07T00:33:44;8.4;;;5.7;;
51194;SDS011;37259;49.972;19.850;2023-08-07T00:34:45;8.4;;;5.7;;
51194;SDS011;37259;49.972;19.850;2023-08-07T00:35:44;8.4;;;5.7;;
51194;SDS011;37259;49.972;19.850;2023-08-07T00:36:44;8.4;;;5.7;;
51194;SDS011;37259;49.972;19.850;2023-08-07T00:37:44;8.4;;;5.7;;
51194;SDS011;37259;49.972;19.850;2023-08-07T00:38:44;8.4;;;5.7;;
51194;SDS011;37259;49.972;19.850;2023-08-07T00:39:44;8.4;;;5.7;;
51194;SDS011;37259;49.972;19.850;2023-08-07T00:40:44;8.4;;;5.7;;
51194;SDS011;37259;49.972;19.850;2023-08-07T00:41:44;10.7;;;5.5;;
51194;SDS011;37259;49.972;19.850;2023-08-07T00:42:44;10.7;;;5.5;;
51194;SDS011;37259;49.972;19.850;2023-08-07T00:43:44;10.7;;;5.5;;
51194;SDS011;37259;49.972;19.850;2023-08-07T00:44:44;10.7;;;5.5;;
51194;SDS011;37259;49.972;19.850;2023-08-07T00:45:45;10.7;;;5.5;;
51194;SDS011;37259;49.972;19.850;2023-08-07T00:46:44;10.7;;;5.5;;
51194;SDS011;37259;49.972;19.850;2023-08-07T00:47:44;10.7;;;5.5;;
51194;SDS011;37259;49.972;19.850;2023-08-07T00:48:44;10.7;;;5.5;;
51194;SDS011;37259;49.972;19.850;2023-08-07T00:49:44;10.7;;;5.5;;
51194;SDS011;37259;49.972;19.850;2023-08-07T00:50:44;10.7;;;5.5;;
51194;SDS011;37259;49.972;19.850;2023-08-07T00:51:44;10.7;;;5.5;;
51194;SDS011;37259;49.972;19.850;2023-08-07T00:52:44;10.7;;;5.5;;
51194;SDS011;37259;49.972;19.850;2023-08-07T00:53:44;10.7;;;5.5;;
51194;SDS011;37259;49.972;19.850;2023-08-07T00:54:44;10.7;;;5.5;;
51194;SDS011;37259;49.972;19.850;2023-08-07T00:55:45;10.7;;;5.5;;
51194;SDS011;37259;49.972;19.850;2023-08-07T00:56:44;10.7;;;5.5;;
51194;SDS011;37259;49.972;19.850;2023-08-07T00:57:44;10.7;;;5.5;;
51194;SDS011;37259;49.972;19.850;2023-08-07T00:58:44;10.7;;;5.5;;
51194;SDS011;37259;49.972;19.850;2023-08-07T00:59:44;10.7;;;5.5;;
51194;SDS011;37259;49.972;19.850;2023-08-07T01:00:44;10.7;;;5.5;;
51194;SDS011;37259;49.972;19.850;2023-08-07T01:01:44;10.7;;;5.5;;
51194;SDS011;37259;49.972;19.850;2023-08-07T01:02:44;10.7;;;5.5;;
51194;SDS011;37259;49.972;19.850;2023-08-07T01:03:44;10.7;;;5.5;;
51194;SDS011;37259;49.972;19.850;2023-08-07T01:04:44;10.7;;;5.5;;
51194;SDS011;37259;49.972;19.850;2023-08-07T01:05:44;10.7;;;5.5;;
51194;SDS011;37259;49.972;19.850;2023-08-07T01:06:44;10.7;;;5.5;;
51194;SDS011;37259;49.972;19.850;2023-08-07T01:07:46;10.7;;;5.5;;
51194;SDS011;37259;49.972;19.850;2023-08-07T01:08:45;10.7;;;5.5;;
51194;SDS011;37259;49.972;19.850;2023-08-07T01:09:45;10.7;;;5.5;;
51194;SDS011;37259;49.972;19.850;2023-08-07T01:10:47;10.7;;;5.5;;
51194;SDS011;37259;49.972;19.850;2023-08-07T01:11:45;4.2;;;2;;
51194;SDS011;37259;49.972;19.850;2023-08-07T01:12:45;4.2;;;2;;
51194;SDS011;37259;49.972;19.850;2023-08-07T01:13:45;4.2;;;2;;
51194;SDS011;37259;49.972;19.850;2023-08-07T01:14:48;4.2;;;2;;
51194;SDS011;37259;49.972;19.850;2023-08-07T01:15:44;4.2;;;2;;
51194;SDS011;37259;49.972;19.850;2023-08-07T01:16:45;4.2;;;2;;
51194;SDS011;37259;49.972;19.850;2023-08-07T01:17:44;4.2;;;2;;
51194;SDS011;37259;49.972;19.850;2023-08-07T01:18:45;4.2;;;2;;
51194;SDS011;37259;49.972;19.850;2023-08-07T01:19:44;4.2;;;2;;
51194;SDS011;37259;49.972;19.850;2023-08-07T01:20:44;4.2;;;2;;
51194;SDS011;37259;49.972;19.850;2023-08-07T01:21:45;4.2;;;2;;
51194;SDS011;37259;49.972;19.850;2023-08-07T01:22:44;4.2;;;2;;
51194;SDS011;37259;49.972;19.850;2023-08-07T01:23:45;4.2;;;2;;
51194;SDS011;37259;49.972;19.850;2023-08-07T01:24:45;4.2;;;2;;
51194;SDS011;37259;49.972;19.850;2023-08-07T01:25:44;4.2;;;2;;
51194;SDS011;37259;49.972;19.850;2023-08-07T01:26:44;4.2;;;2;;
51194;SDS011;37259;49.972;19.850;2023-08-07T01:27:46;4.2;;;2;;
51194;SDS011;37259;49.972;19.850;2023-08-07T01:28:46;4.2;;;2;;
51194;SDS011;37259;49.972;19.850;2023-08-07T01:29:48;4.2;;;2;;
51194;SDS011;37259;49.972;19.850;2023-08-07T01:30:46;4.2;;;2;;
51194;SDS011;37259;49.972;19.850;2023-08-07T01:31:44;4.2;;;2;;
51194;SDS011;37259;49.972;19.850;2023-08-07T01:32:47;4.2;;;2;;
51194;SDS011;37259;49.972;19.850;2023-08-07T01:33:47;4.2;;;2;;
51194;SDS011;37259;49.972;19.850;2023-08-07T01:34:44;4.2;;;2;;
51194;SDS011;37259;49.972;19.850;2023-08-07T01:35:46;4.2;;;2;;
51194;SDS011;37259;49.972;19.850;2023-08-07T01:36:44;4.2;;;2;;
51194;SDS011;37259;49.972;19.850;2023-08-07T01:37:44;4.2;;;2;;
51194;SDS011;37259;49.972;19.850;2023-08-07T01:38:44;4.2;;;2;;
51194;SDS011;37259;49.972;19.850;2023-08-07T01:39:44;4.2;;;2;;
51194;SDS011;37259;49.972;19.850;2023-08-07T01:40:45;4.2;;;2;;
51194;SDS011;37259;49.972;19.850;2023-08-07T01:41:44;5;;;1.6;;
51194;SDS011;37259;49.972;19.850;2023-08-07T01:42:44;5;;;1.6;;
51194;SDS011;37259;49.972;19.850;2023-08-07T01:43:44;5;;;1.6;;
51194;SDS011;37259;49.972;19.850;2023-08-07T01:44:44;5;;;1.6;;
51194;SDS011;37259;49.972;19.850;2023-08-07T01:45:44;5;;;1.6;;
51194;SDS011;37259;49.972;19.850;2023-08-07T01:46:44;5;;;1.6;;
51194;SDS011;37259;49.972;19.850;2023-08-07T01:47:44;5;;;1.6;;
51194;SDS011;37259;49.972;19.850;2023-08-07T01:48:44;5;;;1.6;;
51194;SDS011;37259;49.972;19.850;2023-08-07T01:49:44;5;;;1.6;;
51194;SDS011;37259;49.972;19.850;2023-08-07T01:50:44;5;;;1.6;;
51194;SDS011;37259;49.972;19.850;2023-08-07T01:51:45;5;;;1.6;;
51194;SDS011;37259;49.972;19.850;2023-08-07T01:52:44;5;;;1.6;;
51194;SDS011;37259;49.972;19.850;2023-08-07T01:53:44;5;;;1.6;;
51194;SDS011;37259;49.972;19.850;2023-08-07T01:54:45;5;;;1.6;;
51194;SDS011;37259;49.972;19.850;2023-08-07T01:55:44;5;;;1.6;;
51194;SDS011;37259;49.972;19.850;2023-08-07T01:56:44;5;;;1.6;;
51194;SDS011;37259;49.972;19.850;2023-08-07T01:57:44;5;;;1.6;;
51194;SDS011;37259;49.972;19.850;2023-08-07T01:58:44;5;;;1.6;;
51194;SDS011;37259;49.972;19.850;2023-08-07T01:59:44;5;;;1.6;;
51194;SDS011;37259;49.972;19.850;2023-08-07T02:00:44;5;;;1.6;;
51194;SDS011;37259;49.972;19.850;2023-08-07T02:01:44;5;;;1.6;;
51194;SDS011;37259;49.972;19.850;2023-08-07T02:02:44;5;;;1.6;;
51194;SDS011;37259;49.972;19.850;2023-08-07T02:03:44;5;;;1.6;;
51194;SDS011;37259;49.972;19.850;2023-08-07T02:04:44;5;;;1.6;;
51194;SDS011;37259;49.972;19.850;2023-08-07T02:05:45;5;;;1.6;;
51194;SDS011;37259;49.972;19.850;2023-08-07T02:06:45;5;;;1.6;;
51194;SDS011;37259;49.972;19.850;2023-08-07T02:07:44;5;;;1.6;;
51194;SDS011;37259;49.972;19.850;2023-08-07T02:08:44;5;;;1.6;;
51194;SDS011;37259;49.972;19.850;2023-08-07T02:09:44;5;;;1.6;;
51194;SDS011;37259;49.972;19.850;2023-08-07T02:10:44;5;;;1.6;;
51194;SDS011;37259;49.972;19.850;2023-08-07T02:11:44;6.5;;;1.4;;
51194;SDS011;37259;49.972;19.850;2023-08-07T02:12:44;6.5;;;1.4;;
51194;SDS011;37259;49.972;19.850;2023-08-07T02:13:44;6.5;;;1.4;;
51194;SDS011;37259;49.972;19.850;2023-08-07T02:14:45;6.5;;;1.4;;
51194;SDS011;37259;49.972;19.850;2023-08-07T02:15:45;6.5;;;1.4;;
51194;SDS011;37259;49.972;19.850;2023-08-07T02:16:45;6.5;;;1.4;;
51194;SDS011;37259;49.972;19.850;2023-08-07T02:17:45;6.5;;;1.4;;
51194;SDS011;37259;49.972;19.850;2023-08-07T02:18:45;6.5;;;1.4;;
51194;SDS011;37259;49.972;19.850;2023-08-07T02:19:44;6.5;;;1.4;;
51194;SDS011;37259;49.972;19.850;2023-08-07T02:20:44;6.5;;;1.4;;
51194;SDS011;37259;49.972;19.850;2023-08-07T02:21:45;6.5;;;1.4;;
51194;SDS011;37259;49.972;19.850;2023-08-07T02:22:44;6.5;;;1.4;;
51194;SDS011;37259;49.972;19.850;2023-08-07T02:23:44;6.5;;;1.4;;
51194;SDS011;37259;49.972;19.850;2023-08-07T02:24:45;6.5;;;1.4;;
51194;SDS011;37259;49.972;19.850;2023-08-07T02:25:44;6.5;;;1.4;;
51194;SDS011;37259;49.972;19.850;2023-08-07T02:26:44;6.5;;;1.4;;
51194;SDS011;37259;49.972;19.850;2023-08-07T02:27:44;6.5;;;1.4;;
51194;SDS011;37259;49.972;19.850;2023-08-07T02:28:44;6.5;;;1.4;;
51194;SDS011;37259;49.972;19.850;2023-08-07T02:29:44;6.5;;;1.4;;
51194;SDS011;37259;49.972;19.850;2023-08-07T02:30:45;6.5;;;1.4;;
51194;SDS011;37259;49.972;19.850;2023-08-07T02:31:44;6.5;;;1.4;;
51194;SDS011;37259;49.972;19.850;2023-08-07T02:32:44;6.5;;;1.4;;
51194;SDS011;37259;49.972;19.850;2023-08-07T02:33:45;6.5;;;1.4;;
51194;SDS011;37259;49.972;19.850;2023-08-07T02:34:44;6.5;;;1.4;;
51194;SDS011;37259;49.972;19.850;2023-08-07T02:35:45;6.5;;;1.4;;
51194;SDS011;37259;49.972;19.850;2023-08-07T02:36:44;6.5;;;1.4;;
51194;SDS011;37259;49.972;19.850;2023-08-07T02:37:45;6.5;;;1.4;;
51194;SDS011;37259;49.972;19.850;2023-08-07T02:38:45;6.5;;;1.4;;
51194;SDS011;37259;49.972;19.850;2023-08-07T02:39:45;6.5;;;1.4;;
51194;SDS011;37259;49.972;19.850;2023-08-07T02:40:45;6.5;;;1.4;;
51194;SDS011;37259;49.972;19.850;2023-08-07T02:41:45;3.6;;;1.7;;
51194;SDS011;37259;49.972;19.850;2023-08-07T02:42:44;3.6;;;1.7;;
51194;SDS011;37259;49.972;19.850;2023-08-07T02:43:44;3.6;;;1.7;;
51194;SDS011;37259;49.972;19.850;2023-08-07T02:44:45;3.6;;;1.7;;
51194;SDS011;37259;49.972;19.850;2023-08-07T02:45:44;3.6;;;1.7;;
51194;SDS011;37259;49.972;19.850;2023-08-07T02:46:45;3.6;;;1.7;;
51194;SDS011;37259;49.972;19.850;2023-08-07T02:47:44;3.6;;;1.7;;
51194;SDS011;37259;49.972;19.850;2023-08-07T02:48:44;3.6;;;1.7;;
51194;SDS011;37259;49.972;19.850;2023-08-07T02:49:44;3.6;;;1.7;;
51194;SDS011;37259;49.972;19.850;2023-08-07T02:50:45;3.6;;;1.7;;
51194;SDS011;37259;49.972;19.850;2023-08-07T02:51:44;3.6;;;1.7;;
51194;SDS011;37259;49.972;19.850;2023-08-07T02:52:44;3.6;;;1.7;;
51194;SDS011;37259;49.972;19.850;2023-08-07T02:53:44;3.6;;;1.7;;
51194;SDS011;37259;49.972;19.850;2023-08-07T02:54:44;3.6;;;1.7;;
51194;SDS011;37259;49.972;19.850;2023-08-07T02:55:44;3.6;;;1.7;;
51194;SDS011;37259;49.972;19.850;2023-08-07T02:56:45;3.6;;;1.7;;
51194;SDS011;37259;49.972;19.850;2023-08-07T02:57:44;3.6;;;1.7;;
51194;SDS011;37259;49.972;19.850;2023-08-07T02:58:44;3.6;;;1.7;;
51194;SDS011;37259;49.972;19.850;2023-08-07T02:59:44;3.6;;;1.7;;
51194;SDS011;37259;49.972;19.850;2023-08-07T03:00:45;3.6;;;1.7;;
51194;SDS011;37259;49.972;19.850;2023-08-07T03:01:44;3.6;;;1.7;;
51194;SDS011;37259;49.972;19.850;2023-08-07T03:02:44;3.6;;;1.7;;
51194;SDS011;37259;49.972;19.850;2023-08-07T03:03:44;3.6;;;1.7;;
51194;SDS011;37259;49.972;19.850;2023-08-07T03:04:44;3.6;;;1.7;;
51194;SDS011;37259;49.972;19.850;2023-08-07T03:05:48;3.6;;;1.7;;
51194;SDS011;37259;49.972;19.850;2023-08-07T03:06:44;3.6;;;1.7;;
51194;SDS011;37259;49.972;19.850;2023-08-07T03:07:44;3.6;;;1.7;;
51194;SDS011;37259;49.972;19.850;2023-08-07T03:08:44;3.6;;;1.7;;
51194;SDS011;37259;49.972;19.850;2023-08-07T03:09:45;3.6;;;1.7;;
51194;SDS011;37259;49.972;19.850;2023-08-07T03:10:49;3.6;;;1.7;;
51194;SDS011;37259;49.972;19.850;2023-08-07T03:11:44;3.7;;;1.6;;
51194;SDS011;37259;49.972;19.850;2023-08-07T03:12:45;3.7;;;1.6;;
51194;SDS011;37259;49.972;19.850;2023-08-07T03:13:44;3.7;;;1.6;;
51194;SDS011;37259;49.972;19.850;2023-08-07T03:14:44;3.7;;;1.6;;
51194;SDS011;37259;49.972;19.850;2023-08-07T03:15:45;3.7;;;1.6;;
51194;SDS011;37259;49.972;19.850;2023-08-07T03:16:44;3.7;;;1.6;;
51194;SDS011;37259;49.972;19.850;2023-08-07T03:17:44;3.7;;;1.6;;
51194;SDS011;37259;49.972;19.850;2023-08-07T03:18:44;3.7;;;1.6;;
51194;SDS011;37259;49.972;19.850;2023-08-07T03:19:44;3.7;;;1.6;;
51194;SDS011;37259;49.972;19.850;2023-08-07T03:20:44;3.7;;;1.6;;
51194;SDS011;37259;49.972;19.850;2023-08-07T03:21:44;3.7;;;1.6;;
51194;SDS011;37259;49.972;19.850;2023-08-07T03:22:45;3.7;;;1.6;;
51194;SDS011;37259;49.972;19.850;2023-08-07T03:23:44;3.7;;;1.6;;
51194;SDS011;37259;49.972;19.850;2023-08-07T03:24:46;3.7;;;1.6;;
51194;SDS011;37259;49.972;19.850;2023-08-07T03:25:44;3.7;;;1.6;;
51194;SDS011;37259;49.972;19.850;2023-08-07T03:26:45;3.7;;;1.6;;
51194;SDS011;37259;49.972;19.850;2023-08-07T03:27:45;3.7;;;1.6;;
51194;SDS011;37259;49.972;19.850;2023-08-07T03:28:45;3.7;;;1.6;;
51194;SDS011;37259;49.972;19.850;2023-08-07T03:29:44;3.7;;;1.6;;
51194;SDS011;37259;49.972;19.850;2023-08-07T03:30:44;3.7;;;1.6;;
51194;SDS011;37259;49.972;19.850;2023-08-07T03:31:44;3.7;;;1.6;;
51194;SDS011;37259;49.972;19.850;2023-08-07T03:32:46;3.7;;;1.6;;
51194;SDS011;37259;49.972;19.850;2023-08-07T03:33:44;3.7;;;1.6;;
51194;SDS011;37259;49.972;19.850;2023-08-07T03:34:45;3.7;;;1.6;;
51194;SDS011;37259;49.972;19.850;2023-08-07T03:35:45;3.7;;;1.6;;
51194;SDS011;37259;49.972;19.850;2023-08-07T03:36:45;3.7;;;1.6;;
51194;SDS011;37259;49.972;19.850;2023-08-07T03:37:44;3.7;;;1.6;;
51194;SDS011;37259;49.972;19.850;2023-08-07T03:38:44;3.7;;;1.6;;
51194;SDS011;37259;49.972;19.850;2023-08-07T03:39:45;3.7;;;1.6;;
51194;SDS011;37259;49.972;19.850;2023-08-07T03:40:45;3.7;;;1.6;;
51194;SDS011;37259;49.972;19.850;2023-08-07T03:41:44;4.5;;;2.1;;
51194;SDS011;37259;49.972;19.850;2023-08-07T03:42:44;4.5;;;2.1;;
51194;SDS011;37259;49.972;19.850;2023-08-07T03:43:44;4.5;;;2.1;;
51194;SDS011;37259;49.972;19.850;2023-08-07T03:44:45;4.5;;;2.1;;
51194;SDS011;37259;49.972;19.850;2023-08-07T03:45:44;4.5;;;2.1;;
51194;SDS011;37259;49.972;19.850;2023-08-07T03:46:44;4.5;;;2.1;;
51194;SDS011;37259;49.972;19.850;2023-08-07T03:47:44;4.5;;;2.1;;
51194;SDS011;37259;49.972;19.850;2023-08-07T03:48:45;4.5;;;2.1;;
51194;SDS011;37259;49.972;19.850;2023-08-07T03:49:45;4.5;;;2.1;;
51194;SDS011;37259;49.972;19.850;2023-08-07T03:50:44;4.5;;;2.1;;
51194;SDS011;37259;49.972;19.850;2023-08-07T03:51:44;4.5;;;2.1;;
51194;SDS011;37259;49.972;19.850;2023-08-07T03:52:44;4.5;;;2.1;;
51194;SDS011;37259;49.972;19.850;2023-08-07T03:53:45;4.5;;;2.1;;
51194;SDS011;37259;49.972;19.850;2023-08-07T03:54:45;4.5;;;2.1;;
51194;SDS011;37259;49.972;19.850;2023-08-07T03:55:48;4.5;;;2.1;;
51194;SDS011;37259;49.972;19.850;2023-08-07T03:56:45;4.5;;;2.1;;
51194;SDS011;37259;49.972;19.850;2023-08-07T03:57:44;4.5;;;2.1;;
51194;SDS011;37259;49.972;19.850;2023-08-07T03:58:44;4.5;;;2.1;;
51194;SDS011;37259;49.972;19.850;2023-08-07T03:59:44;4.5;;;2.1;;
51194;SDS011;37259;49.972;19.850;2023-08-07T04:00:45;4.5;;;2.1;;
51194;SDS011;37259;49.972;19.850;2023-08-07T04:01:45;4.5;;;2.1;;
51194;SDS011;37259;49.972;19.850;2023-08-07T04:02:44;4.5;;;2.1;;
51194;SDS011;37259;49.972;19.850;2023-08-07T04:03:46;4.5;;;2.1;;
51194;SDS011;37259;49.972;19.850;2023-08-07T04:04:45;4.5;;;2.1;;
51194;SDS011;37259;49.972;19.850;2023-08-07T04:05:44;4.5;;;2.1;;
51194;SDS011;37259;49.972;19.850;2023-08-07T04:06:44;4.5;;;2.1;;
51194;SDS011;37259;49.972;19.850;2023-08-07T04:07:44;4.5;;;2.1;;
51194;SDS011;37259;49.972;19.850;2023-08-07T04:08:45;4.5;;;2.1;;
51194;SDS011;37259;49.972;19.850;2023-08-07T04:09:45;4.5;;;2.1;;
51194;SDS011;37259;49.972;19.850;2023-08-07T04:10:45;4.5;;;2.1;;
51194;SDS011;37259;49.972;19.850;2023-08-07T04:11:44;5.8;;;2.5;;
51194;SDS011;37259;49.972;19.850;2023-08-07T04:12:44;5.8;;;2.5;;
51194;SDS011;37259;49.972;19.850;2023-08-07T04:13:44;5.8;;;2.5;;
51194;SDS011;37259;49.972;19.850;2023-08-07T04:14:45;5.8;;;2.5;;
51194;SDS011;37259;49.972;19.850;2023-08-07T04:15:44;5.8;;;2.5;;
51194;SDS011;37259;49.972;19.850;2023-08-07T04:16:45;5.8;;;2.5;;
51194;SDS011;37259;49.972;19.850;2023-08-07T04:17:44;5.8;;;2.5;;
51194;SDS011;37259;49.972;19.850;2023-08-07T04:18:44;5.8;;;2.5;;
51194;SDS011;37259;49.972;19.850;2023-08-07T04:19:45;5.8;;;2.5;;
51194;SDS011;37259;49.972;19.850;2023-08-07T04:20:48;5.8;;;2.5;;
51194;SDS011;37259;49.972;19.850;2023-08-07T04:21:44;5.8;;;2.5;;
51194;SDS011;37259;49.972;19.850;2023-08-07T04:22:44;5.8;;;2.5;;
51194;SDS011;37259;49.972;19.850;2023-08-07T04:23:45;5.8;;;2.5;;
51194;SDS011;37259;49.972;19.850;2023-08-07T04:24:44;5.8;;;2.5;;
51194;SDS011;37259;49.972;19.850;2023-08-07T04:25:45;5.8;;;2.5;;
51194;SDS011;37259;49.972;19.850;2023-08-07T04:26:44;5.8;;;2.5;;
51194;SDS011;37259;49.972;19.850;2023-08-07T04:27:44;5.8;;;2.5;;
51194;SDS011;37259;49.972;19.850;2023-08-07T04:28:44;5.8;;;2.5;;
51194;SDS011;37259;49.972;19.850;2023-08-07T04:29:44;5.8;;;2.5;;
51194;SDS011;37259;49.972;19.850;2023-08-07T04:30:45;5.8;;;2.5;;
51194;SDS011;37259;49.972;19.850;2023-08-07T04:31:45;5.8;;;2.5;;
51194;SDS011;37259;49.972;19.850;2023-08-07T04:32:44;5.8;;;2.5;;
51194;SDS011;37259;49.972;19.850;2023-08-07T04:33:44;5.8;;;2.5;;
51194;SDS011;37259;49.972;19.850;2023-08-07T04:34:44;5.8;;;2.5;;
51194;SDS011;37259;49.972;19.850;2023-08-07T04:35:44;5.8;;;2.5;;
51194;SDS011;37259;49.972;19.850;2023-08-07T04:36:44;5.8;;;2.5;;
51194;SDS011;37259;49.972;19.850;2023-08-07T04:37:44;5.8;;;2.5;;
51194;SDS011;37259;49.972;19.850;2023-08-07T04:38:44;5.8;;;2.5;;
51194;SDS011;37259;49.972;19.850;2023-08-07T04:39:45;5.8;;;2.5;;
51194;SDS011;37259;49.972;19.850;2023-08-07T04:40:45;5.8;;;2.5;;
51194;SDS011;37259;49.972;19.850;2023-08-07T04:41:44;5.3;;;3.3;;
51194;SDS011;37259;49.972;19.850;2023-08-07T04:42:44;5.3;;;3.3;;
51194;SDS011;37259;49.972;19.850;2023-08-07T04:43:44;5.3;;;3.3;;
51194;SDS011;37259;49.972;19.850;2023-08-07T04:44:44;5.3;;;3.3;;
51194;SDS011;37259;49.972;19.850;2023-08-07T04:45:45;5.3;;;3.3;;
51194;SDS011;37259;49.972;19.850;2023-08-07T04:46:44;5.3;;;3.3;;
51194;SDS011;37259;49.972;19.850;2023-08-07T04:47:45;5.3;;;3.3;;
51194;SDS011;37259;49.972;19.850;2023-08-07T04:48:44;5.3;;;3.3;;
51194;SDS011;37259;49.972;19.850;2023-08-07T04:49:44;5.3;;;3.3;;
51194;SDS011;37259;49.972;19.850;2023-08-07T04:50:44;5.3;;;3.3;;
51194;SDS011;37259;49.972;19.850;2023-08-07T04:51:44;5.3;;;3.3;;
51194;SDS011;37259;49.972;19.850;2023-08-07T04:52:44;5.3;;;3.3;;
51194;SDS011;37259;49.972;19.850;2023-08-07T04:53:45;5.3;;;3.3;;
51194;SDS011;37259;49.972;19.850;2023-08-07T04:54:45;5.3;;;3.3;;
51194;SDS011;37259;49.972;19.850;2023-08-07T04:55:45;5.3;;;3.3;;
51194;SDS011;37259;49.972;19.850;2023-08-07T04:56:45;5.3;;;3.3;;
51194;SDS011;37259;49.972;19.850;2023-08-07T04:57:44;5.3;;;3.3;;
51194;SDS011;37259;49.972;19.850;2023-08-07T04:58:45;5.3;;;3.3;;
51194;SDS011;37259;49.972;19.850;2023-08-07T04:59:45;5.3;;;3.3;;
51194;SDS011;37259;49.972;19.850;2023-08-07T05:00:44;5.3;;;3.3;;
51194;SDS011;37259;49.972;19.850;2023-08-07T05:01:44;5.3;;;3.3;;
51194;SDS011;37259;49.972;19.850;2023-08-07T05:02:44;5.3;;;3.3;;
51194;SDS011;37259;49.972;19.850;2023-08-07T05:03:45;5.3;;;3.3;;
51194;SDS011;37259;49.972;19.850;2023-08-07T05:04:45;5.3;;;3.3;;
51194;SDS011;37259;49.972;19.850;2023-08-07T05:05:45;5.3;;;3.3;;
51194;SDS011;37259;49.972;19.850;2023-08-07T05:06:44;5.3;;;3.3;;
51194;SDS011;37259;49.972;19.850;2023-08-07T05:07:44;5.3;;;3.3;;
51194;SDS011;37259;49.972;19.850;2023-08-07T05:08:45;5.3;;;3.3;;
51194;SDS011;37259;49.972;19.850;2023-08-07T05:09:45;5.3;;;3.3;;
51194;SDS011;37259;49.972;19.850;2023-08-07T05:10:45;5.3;;;3.3;;
51194;SDS011;37259;49.972;19.850;2023-08-07T05:11:44;3.8;;;1.4;;
51194;SDS011;37259;49.972;19.850;2023-08-07T05:12:45;3.8;;;1.4;;
51194;SDS011;37259;49.972;19.850;2023-08-07T05:13:44;3.8;;;1.4;;
51194;SDS011;37259;49.972;19.850;2023-08-07T05:14:44;3.8;;;1.4;;
51194;SDS011;37259;49.972;19.850;2023-08-07T05:15:46;3.8;;;1.4;;
51194;SDS011;37259;49.972;19.850;2023-08-07T05:16:45;3.8;;;1.4;;
51194;SDS011;37259;49.972;19.850;2023-08-07T05:17:44;3.8;;;1.4;;
51194;SDS011;37259;49.972;19.850;2023-08-07T05:18:44;3.8;;;1.4;;
51194;SDS011;37259;49.972;19.850;2023-08-07T05:19:45;3.8;;;1.4;;
51194;SDS011;37259;49.972;19.850;2023-08-07T05:20:45;3.8;;;1.4;;
51194;SDS011;37259;49.972;19.850;2023-08-07T05:21:44;3.8;;;1.4;;
51194;SDS011;37259;49.972;19.850;2023-08-07T05:22:44;3.8;;;1.4;;
51194;SDS011;37259;49.972;19.850;2023-08-07T05:23:45;3.8;;;1.4;;
51194;SDS011;37259;49.972;19.850;2023-08-07T05:24:45;3.8;;;1.4;;
51194;SDS011;37259;49.972;19.850;2023-08-07T05:25:45;3.8;;;1.4;;
51194;SDS011;37259;49.972;19.850;2023-08-07T05:26:45;3.8;;;1.4;;
51194;SDS011;37259;49.972;19.850;2023-08-07T05:27:44;3.8;;;1.4;;
51194;SDS011;37259;49.972;19.850;2023-08-07T05:28:45;3.8;;;1.4;;
51194;SDS011;37259;49.972;19.850;2023-08-07T05:29:44;3.8;;;1.4;;
51194;SDS011;37259;49.972;19.850;2023-08-07T05:30:45;3.8;;;1.4;;
51194;SDS011;37259;49.972;19.850;2023-08-07T05:31:44;3.8;;;1.4;;
51194;SDS011;37259;49.972;19.850;2023-08-07T05:32:44;3.8;;;1.4;;
51194;SDS011;37259;49.972;19.850;2023-08-07T05:33:45;3.8;;;1.4;;
51194;SDS011;37259;49.972;19.850;2023-08-07T05:34:45;3.8;;;1.4;;
51194;SDS011;37259;49.972;19.850;2023-08-07T05:35:45;3.8;;;1.4;;
51194;SDS011;37259;49.972;19.850;2023-08-07T05:36:45;3.8;;;1.4;;
51194;SDS011;37259;49.972;19.850;2023-08-07T05:37:44;3.8;;;1.4;;
51194;SDS011;37259;49.972;19.850;2023-08-07T05:38:44;3.8;;;1.4;;
51194;SDS011;37259;49.972;19.850;2023-08-07T05:39:45;3.8;;;1.4;;
51194;SDS011;37259;49.972;19.850;2023-08-07T05:40:44;3.8;;;1.4;;
51194;SDS011;37259;49.972;19.850;2023-08-07T05:41:45;1.8;;;0.8;;
51194;SDS011;37259;49.972;19.850;2023-08-07T05:42:44;1.8;;;0.8;;
51194;SDS011;37259;49.972;19.850;2023-08-07T05:43:45;1.8;;;0.8;;
51194;SDS011;37259;49.972;19.850;2023-08-07T05:44:45;1.8;;;0.8;;
51194;SDS011;37259;49.972;19.850;2023-08-07T05:45:45;1.8;;;0.8;;
51194;SDS011;37259;49.972;19.850;2023-08-07T05:46:44;1.8;;;0.8;;
51194;SDS011;37259;49.972;19.850;2023-08-07T05:47:44;1.8;;;0.8;;
51194;SDS011;37259;49.972;19.850;2023-08-07T05:48:45;1.8;;;0.8;;
51194;SDS011;37259;49.972;19.850;2023-08-07T05:49:45;1.8;;;0.8;;
51194;SDS011;37259;49.972;19.850;2023-08-07T05:50:45;1.8;;;0.8;;
51194;SDS011;37259;49.972;19.850;2023-08-07T05:51:45;1.8;;;0.8;;
51194;SDS011;37259;49.972;19.850;2023-08-07T05:52:44;1.8;;;0.8;;
51194;SDS011;37259;49.972;19.850;2023-08-07T05:53:45;1.8;;;0.8;;
51194;SDS011;37259;49.972;19.850;2023-08-07T05:54:45;1.8;;;0.8;;
51194;SDS011;37259;49.972;19.850;2023-08-07T05:55:45;1.8;;;0.8;;
51194;SDS011;37259;49.972;19.850;2023-08-07T05:56:45;1.8;;;0.8;;
51194;SDS011;37259;49.972;19.850;2023-08-07T05:57:45;1.8;;;0.8;;
51194;SDS011;37259;49.972;19.850;2023-08-07T05:58:45;1.8;;;0.8;;
51194;SDS011;37259;49.972;19.850;2023-08-07T05:59:45;1.8;;;0.8;;
51194;SDS011;37259;49.972;19.850;2023-08-07T06:00:45;1.8;;;0.8;;
51194;SDS011;37259;49.972;19.850;2023-08-07T06:01:45;1.8;;;0.8;;
51194;SDS011;37259;49.972;19.850;2023-08-07T06:02:45;1.8;;;0.8;;
51194;SDS011;37259;49.972;19.850;2023-08-07T06:03:45;1.8;;;0.8;;
51194;SDS011;37259;49.972;19.850;2023-08-07T06:04:45;1.8;;;0.8;;
51194;SDS011;37259;49.972;19.850;2023-08-07T06:05:45;1.8;;;0.8;;
51194;SDS011;37259;49.972;19.850;2023-08-07T06:06:45;1.8;;;0.8;;
51194;SDS011;37259;49.972;19.850;2023-08-07T06:07:45;1.8;;;0.8;;
51194;SDS011;37259;49.972;19.850;2023-08-07T06:08:45;1.8;;;0.8;;